Time;durP1;ratioP1;P1;durP2;ratioP2;P2;SDS_P1;SDS_P2;PMS_P1;PMS_P2;Temp;Humidity;BMP_temperature;BMP_pressure;BME280_temperature;BME280_humidity;BME280_pressure;Samples;Min_cycle;Max_cycle;Signal;HPM_P1;HPM_P2
2021/04/09 00:00:22;;;;;;;13.33;5.27;;;;;;;0.47;65.22;96604.50;5080317;28;20055;-75
2021/04/09 00:02:48;;;;;;;11.27;5.00;;;;;;;0.48;65.42;96598.41;5080698;28;20466;-75
2021/04/09 00:05:17;;;;;;;11.93;6.10;;;;;;;0.49;65.29;96594.88;5058090;28;20526;-75
2021/04/09 00:07:43;;;;;;;9.10;4.93;;;;;;;0.51;65.63;96593.06;5069181;28;20047;-75
2021/04/09 00:10:09;;;;;;;10.53;5.33;;;;;;;0.45;66.08;96594.25;5067834;28;20450;-75
2021/04/09 00:12:37;;;;;;;9.03;4.93;;;;;;;0.40;66.15;96592.81;5067720;28;20044;-76
2021/04/09 00:15:05;;;;;;;12.80;5.70;;;;;;;0.36;66.35;96586.16;5051208;28;20454;-75
2021/04/09 00:17:31;;;;;;;11.43;4.97;;;;;;;0.34;66.72;96582.84;5059161;28;20814;-75
2021/04/09 00:19:56;;;;;;;12.83;6.23;;;;;;;0.35;66.49;96587.09;5077441;28;20439;-76
2021/04/09 00:22:22;;;;;;;11.17;5.13;;;;;;;0.30;66.71;96574.41;5076072;28;20035;-74
2021/04/09 00:24:47;;;;;;;15.67;5.70;;;;;;;0.25;67.27;96583.38;5077113;28;20024;-75
2021/04/09 00:27:13;;;;;;;11.37;6.10;;;;;;;0.30;66.67;96578.75;5080125;28;20033;-75
2021/04/09 00:29:39;;;;;;;12.40;5.47;;;;;;;0.17;67.49;96574.31;5049745;28;20029;-76
2021/04/09 00:32:05;;;;;;;12.17;5.50;;;;;;;0.13;67.38;96575.38;5081470;28;20388;-75
2021/04/09 00:34:30;;;;;;;10.57;5.30;;;;;;;0.12;67.53;96572.88;5060670;28;20244;-75
2021/04/09 00:36:56;;;;;;;11.73;5.57;;;;;;;0.11;67.93;96577.22;5073312;28;20454;-75
2021/04/09 00:39:22;;;;;;;9.63;5.00;;;;;;;0.06;68.00;96576.63;5069045;28;20059;-76
2021/04/09 00:41:47;;;;;;;10.67;5.90;;;;;;;0.07;67.79;96575.75;5063644;28;20036;-75
2021/04/09 00:44:13;;;;;;;13.57;5.40;;;;;;;0.09;68.05;96576.47;5070527;28;20052;-75
2021/04/09 00:46:40;;;;;;;12.30;5.83;;;;;;;0.01;67.87;96565.75;5049732;28;20028;-75
2021/04/09 00:49:05;;;;;;;9.07;5.57;;;;;;;0.01;68.33;96567.50;5071223;28;20544;-75
2021/04/09 00:51:33;;;;;;;10.30;5.63;;;;;;;0.03;68.11;96561.28;5067221;28;20877;-75
2021/04/09 00:54:01;;;;;;;12.10;5.10;;;;;;;-0.03;68.27;96564.25;5066062;28;20461;-75
2021/04/09 00:56:29;;;;;;;12.80;5.23;;;;;;;-0.09;69.03;96564.59;5071984;28;20451;-75
2021/04/09 00:58:56;;;;;;;13.03;5.60;;;;;;;-0.18;69.21;96559.94;5071549;28;20446;-74
2021/04/09 01:01:22;;;;;;;11.53;5.63;;;;;;;-0.19;69.14;96560.84;5064717;28;20536;-75
2021/04/09 01:03:51;;;;;;;11.53;5.10;;;;;;;-0.23;68.88;96552.44;5058633;28;20954;-75
2021/04/09 01:06:18;;;;;;;11.03;5.90;;;;;;;-0.33;69.73;96559.88;5078949;28;20533;-75
2021/04/09 01:08:44;;;;;;;12.17;5.83;;;;;;;-0.34;70.09;96557.34;5038914;28;20795;-75
2021/04/09 01:11:10;;;;;;;13.77;6.33;;;;;;;-0.35;69.99;96555.69;5065672;28;20462;-75
2021/04/09 01:13:36;;;;;;;10.63;5.03;;;;;;;-0.41;70.01;96549.09;5074902;28;20546;-75
2021/04/09 01:16:12;;;;;;;12.80;5.63;;;;;;;-0.50;70.03;96552.22;5059011;28;20044;-75
2021/04/09 01:19:12;;;;;;;11.87;5.90;;;;;;;-0.56;70.55;96534.47;5080595;28;20051;-75
2021/04/09 01:21:52;;;;;;;10.37;5.70;;;;;;;-0.60;70.83;96538.97;5023113;28;20475;-75
2021/04/09 01:24:42;;;;;;;13.40;5.77;;;;;;;-0.62;70.76;96535.63;5077652;28;20486;-75
2021/04/09 01:27:45;;;;;;;8.50;5.13;;;;;;;-0.56;70.49;96537.88;5066064;28;20439;-75
2021/04/09 01:30:42;;;;;;;11.63;5.57;;;;;;;-0.48;70.24;96529.69;5057371;28;20459;-74
2021/04/09 01:33:09;;;;;;;11.10;5.13;;;;;;;-0.52;69.97;96531.59;5071301;28;20478;-75
2021/04/09 01:35:40;;;;;;;12.00;4.73;;;;;;;-0.54;70.16;96522.28;5074035;28;20534;-76
2021/04/09 01:38:07;;;;;;;11.23;5.00;;;;;;;-0.57;70.69;96530.19;5053755;28;20473;-75
2021/04/09 01:40:43;;;;;;;9.90;5.50;;;;;;;-0.59;70.31;96525.13;5072313;28;20988;-74
2021/04/09 01:43:15;;;;;;;10.10;5.40;;;;;;;-0.56;70.44;96522.38;5047908;28;21059;-75
2021/04/09 01:45:42;;;;;;;10.40;5.50;;;;;;;-0.54;70.09;96524.84;5075904;28;20919;-75
2021/04/09 01:48:10;;;;;;;10.00;5.60;;;;;;;-0.59;70.10;96527.69;5067787;28;20451;-76
2021/04/09 01:50:36;;;;;;;9.67;4.87;;;;;;;-0.60;70.03;96520.06;5088680;28;20457;-75
2021/04/09 01:53:04;;;;;;;10.70;5.07;;;;;;;-0.64;70.43;96513.38;5080493;28;20523;-75
2021/04/09 01:55:33;;;;;;;11.57;5.23;;;;;;;-0.60;69.92;96512.31;5087858;28;20480;-75
2021/04/09 01:58:01;;;;;;;13.13;5.73;;;;;;;-0.62;70.48;96508.97;5078655;28;20569;-75
2021/04/09 02:00:27;;;;;;;10.77;5.20;;;;;;;-0.55;69.64;96511.09;5090619;28;20529;-75
2021/04/09 02:02:54;;;;;;;12.10;5.60;;;;;;;-0.60;69.76;96501.97;5090539;28;20449;-75
2021/04/09 02:05:25;;;;;;;10.23;5.13;;;;;;;-0.66;70.28;96497.13;5070147;28;20880;-75
2021/04/09 02:07:52;;;;;;;12.50;5.57;;;;;;;-0.65;70.16;96499.63;5051342;28;20481;-75
2021/04/09 02:10:20;;;;;;;10.27;5.63;;;;;;;-0.68;70.03;96499.78;5049481;28;20472;-74
2021/04/09 02:12:47;;;;;;;11.03;5.40;;;;;;;-0.66;69.68;96491.97;5060949;28;20823;-75
2021/04/09 02:15:18;;;;;;;9.50;5.03;;;;;;;-0.66;70.11;96504.88;5075068;28;20466;-75
2021/04/09 02:17:44;;;;;;;11.50;6.30;;;;;;;-0.68;69.88;96492.03;5080439;28;20973;-75
2021/04/09 02:20:15;;;;;;;11.67;5.43;;;;;;;-0.65;69.53;96486.72;5090298;28;20471;-74
2021/04/09 02:22:43;;;;;;;9.27;4.70;;;;;;;-0.66;70.39;96481.63;5077899;28;20123;-75
2021/04/09 02:25:10;;;;;;;10.33;5.30;;;;;;;-0.74;70.42;96482.03;5078698;28;20478;-76
2021/04/09 02:27:37;;;;;;;10.97;5.10;;;;;;;-0.86;70.44;96483.56;5069689;28;20542;-75
2021/04/09 02:30:10;;;;;;;12.90;5.87;;;;;;;-0.91;70.61;96485.53;5077895;28;20820;-75
2021/04/09 02:32:36;;;;;;;11.85;5.30;;;;;;;-0.93;71.40;96491.72;5068011;28;20466;-75
2021/04/09 02:35:04;;;;;;;12.00;6.00;;;;;;;-0.98;70.84;96481.63;5057171;28;20028;-75
2021/04/09 02:37:30;;;;;;;12.77;5.57;;;;;;;-0.91;70.45;96479.53;5086818;28;20035;-75
2021/04/09 02:39:57;;;;;;;10.50;5.77;;;;;;;-0.84;70.43;96478.28;5081620;28;20457;-75
2021/04/09 02:42:24;;;;;;;11.93;6.07;;;;;;;-0.79;69.75;96484.06;5081317;28;20051;-75
2021/04/09 02:44:52;;;;;;;9.90;5.80;;;;;;;-0.66;69.20;96471.31;5077699;28;20558;-76
2021/04/09 02:47:25;;;;;;;11.43;6.37;;;;;;;-0.50;68.48;96469.53;5059771;28;20462;-75
2021/04/09 02:50:04;;;;;;;15.68;5.53;;;;;;;-0.42;67.54;96466.53;5057361;28;20477;-75
2021/04/09 02:52:32;;;;;;;13.53;5.63;;;;;;;-0.40;67.31;96465.53;5086644;28;20032;-75
2021/04/09 02:55:07;;;;;;;11.77;5.23;;;;;;;-0.41;67.71;96463.00;5078763;28;20474;-76
2021/04/09 02:57:35;;;;;;;13.57;5.20;;;;;;;-0.41;67.56;96461.25;5062441;28;20459;-75
2021/04/09 03:00:05;;;;;;;16.43;4.93;;;;;;;-0.36;67.04;96467.00;5064574;28;20523;-75
2021/04/09 03:02:32;;;;;;;9.07;4.80;;;;;;;-0.43;66.98;96465.69;5067296;28;20467;-75
2021/04/09 03:04:58;;;;;;;11.50;4.77;;;;;;;-0.53;68.00;96460.22;5046137;28;20463;-75
2021/04/09 03:07:24;;;;;;;9.50;5.17;;;;;;;-0.57;68.04;96458.72;5070801;28;20874;-75
2021/04/09 03:09:50;;;;;;;10.70;5.23;;;;;;;-0.62;68.18;96459.88;5064302;28;20028;-75
2021/04/09 03:12:17;;;;;;;8.87;5.30;;;;;;;-0.65;68.23;96466.03;5057119;28;20037;-75
2021/04/09 03:14:44;;;;;;;8.23;5.03;;;;;;;-0.75;68.67;96457.97;5079661;28;20474;-75
2021/04/09 03:17:38;;;;;;;10.00;5.53;;;;;;;-0.80;68.85;96454.81;5057603;28;20536;-75
2021/04/09 03:20:08;;;;;;;9.65;5.30;;;;;;;-0.81;68.66;96450.56;5050658;28;21689;-76
2021/04/09 03:22:34;;;;;;;11.90;5.50;;;;;;;-0.79;68.67;96450.47;5077177;28;20130;-74
2021/04/09 03:24:59;;;;;;;10.03;5.30;;;;;;;-0.75;69.12;96452.81;5060669;28;20549;-74
2021/04/09 03:27:25;;;;;;;12.33;5.27;;;;;;;-0.69;68.39;96445.66;5059012;28;20405;-75
2021/04/09 03:29:51;;;;;;;11.83;6.30;;;;;;;-0.72;68.45;96444.88;5080300;28;20024;-75
2021/04/09 03:32:17;;;;;;;14.70;5.77;;;;;;;-0.70;68.96;96439.66;5055576;28;20116;-75
2021/04/09 03:34:45;;;;;;;11.77;5.13;;;;;;;-0.71;69.04;96436.22;5078415;28;20046;-75
2021/04/09 03:37:10;;;;;;;11.37;4.90;;;;;;;-0.71;69.20;96440.56;5086141;28;20446;-74
2021/04/09 03:39:37;;;;;;;10.23;5.53;;;;;;;-0.69;68.69;96435.31;5076675;28;21293;-76
2021/04/09 03:42:04;;;;;;;13.87;5.93;;;;;;;-0.64;68.30;96438.47;5060790;28;20028;-76
2021/04/09 03:44:29;;;;;;;13.00;5.57;;;;;;;-0.62;68.20;96439.22;5071611;28;20471;-75
2021/04/09 03:46:55;;;;;;;11.47;5.33;;;;;;;-0.54;68.20;96434.44;5075609;28;20534;-75
2021/04/09 03:49:21;;;;;;;12.20;6.57;;;;;;;-0.48;67.51;96431.53;5069824;28;20055;-75
2021/04/09 03:51:47;;;;;;;11.43;6.27;;;;;;;-0.48;67.49;96428.94;5063206;28;20451;-74
2021/04/09 03:54:13;;;;;;;16.30;7.13;;;;;;;-0.33;66.54;96425.50;5050836;28;20031;-75
2021/04/09 03:56:39;;;;;;;14.63;7.67;;;;;;;-0.36;67.01;96412.75;5077744;28;20023;-75
2021/04/09 03:59:05;;;;;;;28.40;11.63;;;;;;;-0.40;66.95;96424.19;5060215;28;20470;-75
2021/04/09 04:01:31;;;;;;;44.43;17.43;;;;;;;-0.36;67.00;96419.66;5077190;28;20028;-75
2021/04/09 04:03:56;;;;;;;55.47;19.50;;;;;;;-0.37;67.03;96418.84;5062943;28;20021;-75
2021/04/09 04:06:22;;;;;;;42.40;15.57;;;;;;;-0.37;66.88;96418.84;5074404;28;20020;-75
2021/04/09 04:08:48;;;;;;;22.63;10.33;;;;;;;-0.35;66.69;96411.81;5073287;28;20032;-75
2021/04/09 04:11:14;;;;;;;24.73;10.83;;;;;;;-0.33;66.56;96415.16;5069301;28;20028;-75
2021/04/09 04:13:40;;;;;;;18.30;8.20;;;;;;;-0.31;66.22;96412.47;5072821;28;20566;-75
2021/04/09 04:16:06;;;;;;;17.57;7.83;;;;;;;-0.39;66.78;96412.09;5061356;28;20515;-74
2021/04/09 04:18:31;;;;;;;21.93;7.43;;;;;;;-0.35;66.72;96416.16;5077878;28;20040;-75
2021/04/09 04:20:58;;;;;;;12.43;5.77;;;;;;;-0.41;67.27;96419.91;5074432;28;20031;-76
2021/04/09 04:23:24;;;;;;;9.67;5.00;;;;;;;-0.43;67.30;96416.59;5073903;28;20138;-75
2021/04/09 04:25:49;;;;;;;13.40;5.60;;;;;;;-0.43;67.05;96421.78;5084910;28;20455;-75
2021/04/09 04:28:15;;;;;;;12.67;5.43;;;;;;;-0.42;67.08;96418.25;5063092;28;20385;-75
2021/04/09 04:30:41;;;;;;;11.37;5.30;;;;;;;-0.41;67.15;96417.31;5076384;28;20115;-75
2021/04/09 04:33:07;;;;;;;10.70;4.93;;;;;;;-0.43;67.29;96424.34;5077512;28;20020;-75
2021/04/09 04:35:33;;;;;;;9.00;4.90;;;;;;;-0.48;67.04;96427.19;5075317;28;20458;-76
2021/04/09 04:38:00;;;;;;;12.17;5.60;;;;;;;-0.44;67.42;96417.50;5074771;28;20032;-75
2021/04/09 04:40:27;;;;;;;10.77;5.23;;;;;;;-0.38;66.87;96418.91;5063977;28;20115;-77
2021/04/09 04:42:52;;;;;;;13.90;5.37;;;;;;;-0.28;66.20;96418.28;5066303;28;20542;-75
2021/04/09 04:45:19;;;;;;;13.50;6.37;;;;;;;-0.25;66.11;96422.47;5068532;28;20530;-75
2021/04/09 04:47:44;;;;;;;36.27;14.17;;;;;;;-0.21;65.74;96417.94;5082429;28;20026;-75
2021/04/09 04:50:11;;;;;;;41.70;15.23;;;;;;;-0.11;65.61;96413.91;5069881;28;20547;-75
2021/04/09 04:52:36;;;;;;;32.47;12.07;;;;;;;-0.02;65.04;96416.78;5080767;28;20042;-76
2021/04/09 04:55:04;;;;;;;12.97;6.03;;;;;;;-0.01;65.32;96415.84;5066787;28;20463;-76
2021/04/09 04:57:29;;;;;;;12.37;5.70;;;;;;;0.04;64.98;96423.34;5058402;28;20033;-77
2021/04/09 04:59:55;;;;;;;12.53;6.07;;;;;;;0.10;64.49;96417.84;5061235;28;20463;-75
2021/04/09 05:02:21;;;;;;;13.67;5.80;;;;;;;0.10;64.77;96420.41;5078942;28;20165;-75
2021/04/09 05:04:46;;;;;;;12.60;5.87;;;;;;;0.14;64.43;96424.47;5076235;28;20489;-76
2021/04/09 05:07:12;;;;;;;12.63;5.60;;;;;;;0.18;64.68;96417.38;5071689;28;20094;-75
2021/04/09 05:09:38;;;;;;;9.60;5.63;;;;;;;0.17;64.60;96413.97;5075777;28;20433;-75
2021/04/09 05:12:04;;;;;;;11.80;6.13;;;;;;;0.23;64.79;96413.59;5061762;28;20106;-76
2021/04/09 05:14:29;;;;;;;17.47;6.93;;;;;;;0.23;64.49;96418.78;5050868;28;20032;-76
2021/04/09 05:16:55;;;;;;;12.80;5.70;;;;;;;0.21;64.35;96415.44;5077435;28;20451;-76
2021/04/09 05:19:21;;;;;;;14.23;5.50;;;;;;;0.23;64.48;96415.31;5062536;28;20044;-75
2021/04/09 05:21:46;;;;;;;11.57;5.30;;;;;;;0.32;63.85;96416.53;5049924;28;20063;-75
2021/04/09 05:24:12;;;;;;;14.97;5.87;;;;;;;0.41;63.93;96416.00;5046331;28;20131;-76
2021/04/09 05:26:38;;;;;;;9.30;4.80;;;;;;;0.54;64.07;96416.91;5066571;28;20506;-76
2021/04/09 05:29:04;;;;;;;9.83;5.00;;;;;;;0.57;63.63;96416.75;5076862;28;20039;-74
2021/04/09 05:31:33;;;;;;;11.03;5.33;;;;;;;0.63;63.26;96426.69;5049093;28;20115;-75
2021/04/09 05:33:59;;;;;;;14.57;5.80;;;;;;;0.89;62.53;96419.09;5067638;28;20086;-76
2021/04/09 05:36:24;;;;;;;11.13;5.83;;;;;;;1.10;61.75;96416.91;5046097;28;20463;-76
2021/04/09 05:38:50;;;;;;;9.77;5.53;;;;;;;1.10;61.79;96422.91;5076561;28;20687;-76
2021/04/09 05:41:16;;;;;;;13.27;5.23;;;;;;;1.30;61.14;96416.47;5085511;28;20379;-75
2021/04/09 05:43:41;;;;;;;10.47;5.77;;;;;;;1.33;61.02;96416.28;5067922;28;20698;-76
2021/04/09 05:46:07;;;;;;;12.00;6.40;;;;;;;1.39;61.48;96415.88;5073029;28;20157;-75
2021/04/09 05:48:33;;;;;;;12.77;6.47;;;;;;;1.49;60.42;96412.72;5072544;28;20035;-77
2021/04/09 05:50:59;;;;;;;18.47;7.40;;;;;;;1.74;59.85;96407.56;5061360;28;20028;-76
2021/04/09 05:53:24;;;;;;;14.93;7.40;;;;;;;2.11;58.99;96408.59;5077495;28;20028;-76
2021/04/09 05:55:50;;;;;;;13.10;7.30;;;;;;;2.46;58.41;96409.72;5060627;28;20039;-75
2021/04/09 05:58:16;;;;;;;11.63;5.77;;;;;;;2.80;57.18;96395.22;5072335;28;20046;-75
2021/04/09 06:00:42;;;;;;;12.47;6.33;;;;;;;3.14;55.72;96392.84;5056008;28;20037;-76
2021/04/09 06:03:07;;;;;;;45.30;19.97;;;;;;;3.25;55.83;96388.53;5059780;28;20450;-75
2021/04/09 06:05:33;;;;;;;22.20;10.17;;;;;;;3.19;55.44;96393.34;5067705;28;20039;-76
2021/04/09 06:07:59;;;;;;;11.67;6.40;;;;;;;3.09;55.77;96381.97;5045420;28;20024;-76
2021/04/09 06:10:25;;;;;;;17.60;7.53;;;;;;;3.20;56.32;96382.00;5060239;28;20043;-76
2021/04/09 06:12:51;;;;;;;11.97;6.00;;;;;;;3.71;54.36;96376.53;5078528;28;20059;-76
2021/04/09 06:15:16;;;;;;;10.60;5.43;;;;;;;3.76;54.55;96374.44;5067971;28;20086;-76
2021/04/09 06:17:44;;;;;;;14.60;6.03;;;;;;;4.06;53.85;96373.94;5063810;28;20146;-76
2021/04/09 06:20:10;;;;;;;10.53;5.83;;;;;;;4.51;51.77;96378.34;5077657;28;20028;-76
2021/04/09 06:22:36;;;;;;;12.23;5.70;;;;;;;4.68;50.52;96375.25;5069279;28;21005;-77
2021/04/09 06:25:05;;;;;;;13.33;6.17;;;;;;;4.82;50.68;96368.97;5073448;28;20541;-76
2021/04/09 06:27:31;;;;;;;12.77;5.77;;;;;;;5.10;49.79;96370.22;5062362;28;20028;-76
2021/04/09 06:29:57;;;;;;;9.03;4.90;;;;;;;5.44;49.38;96366.56;5088878;28;20456;-76
2021/04/09 06:32:22;;;;;;;10.33;5.07;;;;;;;5.65;48.58;96368.38;5084129;28;20031;-77
2021/04/09 06:34:48;;;;;;;13.17;5.27;;;;;;;5.96;48.35;96363.28;5060607;28;20029;-79
2021/04/09 06:37:14;;;;;;;11.90;5.43;;;;;;;6.31;47.23;96370.78;5069610;28;20047;-77
2021/04/09 06:39:39;;;;;;;11.57;5.40;;;;;;;6.20;47.90;96376.88;5056919;28;20032;-77
2021/04/09 06:42:07;;;;;;;11.50;5.50;;;;;;;6.65;45.41;96367.91;5069569;28;20028;-78
2021/04/09 06:44:33;;;;;;;12.27;5.77;;;;;;;7.12;44.54;96362.94;5070411;28;20071;-78
2021/04/09 06:46:59;;;;;;;10.47;6.07;;;;;;;7.44;44.24;96349.63;5060636;28;20052;-77
2021/04/09 06:49:26;;;;;;;9.67;5.60;;;;;;;7.32;44.77;96356.78;5081317;28;20459;-78
2021/04/09 06:51:52;;;;;;;8.33;4.63;;;;;;;7.76;43.62;96355.41;5070222;28;20013;-78
2021/04/09 06:54:17;;;;;;;10.47;5.00;;;;;;;7.27;44.31;96358.97;5069774;28;20128;-78
2021/04/09 06:56:44;;;;;;;9.83;4.47;;;;;;;7.87;43.24;96346.59;5047204;28;20170;-77
2021/04/09 06:59:16;;;;;;;12.77;4.20;;;;;;;8.10;42.42;96352.34;5078779;28;20119;-78
2021/04/09 07:01:46;;;;;;;7.97;4.50;;;;;;;8.17;41.99;96350.81;5064475;28;20119;-80
2021/04/09 07:04:15;;;;;;;10.07;5.00;;;;;;;8.26;42.75;96344.72;5056853;28;20033;-78
2021/04/09 07:06:40;;;;;;;8.70;4.13;;;;;;;9.20;39.37;96344.59;5066088;28;20036;-77
2021/04/09 07:09:07;;;;;;;9.67;4.53;;;;;;;9.94;38.76;96337.41;5077458;28;20024;-77
2021/04/09 07:11:37;;;;;;;10.17;4.13;;;;;;;9.41;39.10;96333.00;5078672;28;20037;-77
2021/04/09 07:14:03;;;;;;;10.17;4.10;;;;;;;9.43;38.27;96338.94;5070392;28;20033;-76
2021/04/09 07:16:29;;;;;;;10.83;5.43;;;;;;;9.65;38.83;96338.47;5069668;28;20056;-77
2021/04/09 07:19:03;;;;;;;8.90;3.53;;;;;;;10.01;38.70;96337.63;5061527;28;20075;-78
2021/04/09 07:21:34;;;;;;;11.93;5.53;;;;;;;9.29;38.73;96339.44;5051452;28;20036;-76
2021/04/09 07:24:18;;;;;;;9.13;4.67;;;;;;;9.76;39.98;96341.84;5062492;28;20040;-77
2021/04/09 07:26:43;;;;;;;;;;;;;;;9.91;39.16;96338.53;5070407;28;20071;-76
2021/04/09 07:29:30;;;;;;;8.73;4.17;;;;;;;9.85;39.30;96338.31;5069896;28;20057;-77
2021/04/09 07:32:08;;;;;;;9.43;4.97;;;;;;;11.08;37.91;96319.63;5075412;28;20036;-77
2021/04/09 07:34:58;;;;;;;13.10;5.40;;;;;;;10.96;38.72;96325.34;5079720;28;20060;-77
2021/04/09 07:37:24;;;;;;;13.93;5.23;;;;;;;12.25;37.19;96318.56;5058678;28;20068;-77
2021/04/09 07:39:54;;;;;;;14.97;5.87;;;;;;;12.10;37.25;96319.41;5069758;28;20493;-77
2021/04/09 07:42:29;;;;;;;10.30;4.23;;;;;;;13.00;34.48;96313.88;5065642;28;20068;-77
2021/04/09 07:45:01;;;;;;;12.07;4.77;;;;;;;12.41;36.27;96317.72;5070793;28;20560;-77
2021/04/09 07:47:27;;;;;;;10.90;4.77;;;;;;;12.29;36.92;96318.25;5053233;28;20070;-77
2021/04/09 07:50:08;;;;;;;10.40;4.40;;;;;;;12.52;34.98;96328.91;5075689;28;20028;-77
2021/04/09 07:52:42;;;;;;;9.43;4.27;;;;;;;12.54;35.55;96316.34;5063002;28;20024;-77
2021/04/09 07:55:22;;;;;;;8.90;3.90;;;;;;;13.33;33.49;96302.19;5049779;28;20113;-77
2021/04/09 07:57:49;;;;;;;7.10;3.67;;;;;;;13.52;32.96;96302.75;5059204;28;20068;-77
2021/04/09 08:00:15;;;;;;;6.97;3.90;;;;;;;13.81;32.86;96302.81;5067320;28;20048;-77
2021/04/09 08:02:40;;;;;;;10.73;3.97;;;;;;;13.97;32.28;96307.16;5064064;28;20071;-79
2021/04/09 08:05:07;;;;;;;6.60;3.77;;;;;;;13.09;33.46;96307.59;5052378;28;20031;-78
2021/04/09 08:07:34;;;;;;;8.37;4.20;;;;;;;13.33;33.43;96301.38;5073429;28;20163;-79
2021/04/09 08:10:00;;;;;;;6.93;3.20;;;;;;;14.27;30.71;96300.09;5055174;28;20020;-82
2021/04/09 08:12:34;;;;;;;7.40;3.70;;;;;;;14.39;31.80;96303.97;5073510;28;20039;-77
2021/04/09 08:15:15;;;;;;;7.23;2.57;;;;;;;14.45;29.11;96296.28;5082254;28;20047;-77
2021/04/09 08:17:42;;;;;;;5.57;2.17;;;;;;;14.29;26.73;96292.00;5078504;28;20023;-77
2021/04/09 08:20:15;;;;;;;4.60;2.20;;;;;;;14.33;28.00;96294.09;5055281;28;20079;-78
2021/04/09 08:22:41;;;;;;;;;;;;;;;14.11;26.53;96289.69;5071117;28;20037;-78
2021/04/09 08:25:09;;;;;;;5.33;2.63;;;;;;;15.04;27.97;96280.41;5052611;28;19973;-79
2021/04/09 08:27:37;;;;;;;6.87;2.30;;;;;;;14.38;28.12;96288.25;5052288;28;20430;-78
2021/04/09 08:30:06;;;;;;;6.57;2.50;;;;;;;14.90;27.62;96283.91;5061378;28;20021;-80
2021/04/09 08:32:32;;;;;;;6.47;2.13;;;;;;;14.77;26.37;96280.06;5060082;28;20037;-79
2021/04/09 08:34:58;;;;;;;7.40;2.50;;;;;;;14.09;27.78;96286.41;5066216;28;20035;-78
2021/04/09 08:37:24;;;;;;;3.87;1.83;;;;;;;14.32;27.88;96292.47;5086345;28;20040;-79
2021/04/09 08:39:51;;;;;;;6.43;1.90;;;;;;;14.04;25.86;96289.59;5068964;28;20031;-77
2021/04/09 08:42:18;;;;;;;4.80;1.60;;;;;;;14.50;26.00;96284.19;5063792;28;20032;-78
2021/04/09 08:44:45;;;;;;;3.43;1.50;;;;;;;13.88;25.24;96290.56;5078978;28;20071;-77
2021/04/09 08:47:16;;;;;;;4.20;1.93;;;;;;;14.06;26.28;96292.06;5066666;28;20032;-77
2021/04/09 08:49:42;;;;;;;3.53;1.90;;;;;;;14.06;24.91;96282.31;5067720;28;20561;-77
2021/04/09 08:52:11;;;;;;;5.73;2.00;;;;;;;14.17;25.60;96291.63;5070440;28;20094;-77
2021/04/09 08:54:51;;;;;;;4.03;1.90;;;;;;;15.22;26.60;96283.44;5070345;28;20505;-79
2021/04/09 08:57:35;;;;;;;3.03;1.57;;;;;;;15.01;24.91;96288.72;5073823;28;20552;-76
2021/04/09 09:00:25;;;;;;;3.50;1.70;;;;;;;14.85;23.79;96290.59;5066241;28;20147;-78
2021/04/09 09:02:55;;;;;;;4.33;1.70;;;;;;;14.13;25.29;96292.97;5056889;28;20045;-77
2021/04/09 09:05:22;;;;;;;5.13;1.67;;;;;;;13.41;25.23;96288.94;5056590;28;20037;-80
2021/04/09 09:07:51;;;;;;;3.43;1.70;;;;;;;14.08;24.47;96284.75;5069927;28;20031;-77
2021/04/09 09:10:23;;;;;;;4.17;1.80;;;;;;;13.43;26.01;96292.22;5069993;28;20532;-77
2021/04/09 09:13:04;;;;;;;4.87;2.17;;;;;;;13.07;26.71;96291.91;5062348;28;20032;-76
2021/04/09 09:15:42;;;;;;;4.50;1.80;;;;;;;12.69;26.43;96291.75;5075747;28;20369;-78
2021/04/09 09:18:31;;;;;;;4.87;1.87;;;;;;;12.92;27.82;96294.47;5075492;28;20657;-77
2021/04/09 09:21:23;;;;;;;5.30;1.50;;;;;;;13.17;27.27;96281.13;5059847;28;20063;-77
2021/04/09 09:24:03;;;;;;;6.37;2.10;;;;;;;13.21;26.91;96282.41;5066086;28;20409;-77
2021/04/09 09:26:40;;;;;;;3.47;1.70;;;;;;;13.50;26.84;96275.66;5074257;28;20497;-79
2021/04/09 09:29:22;;;;;;;6.90;2.00;;;;;;;12.96;26.36;96277.28;5062996;28;20025;-76
2021/04/09 09:32:07;;;;;;;4.73;2.20;;;;;;;13.46;27.09;96269.09;5065298;28;20040;-80
2021/04/09 09:34:36;;;;;;;7.03;2.27;;;;;;;13.91;26.39;96274.31;5059893;28;20569;-76
2021/04/09 09:37:11;;;;;;;8.80;2.87;;;;;;;13.62;27.05;96271.63;5072781;28;20110;-75
2021/04/09 09:39:40;;;;;;;5.67;2.10;;;;;;;13.57;26.61;96268.66;5078708;28;20086;-77
2021/04/09 09:42:16;;;;;;;8.77;2.60;;;;;;;13.23;27.72;96267.22;5084452;28;20016;-76
2021/04/09 09:44:44;;;;;;;5.37;2.50;;;;;;;13.45;27.73;96268.28;5038952;28;20037;-77
2021/04/09 09:47:16;;;;;;;4.23;1.80;;;;;;;13.43;27.10;96264.97;5054779;28;20034;-77
2021/04/09 09:50:00;;;;;;;5.10;2.20;;;;;;;13.19;27.23;96252.72;5079004;28;20560;-77
2021/04/09 09:52:42;;;;;;;7.73;2.40;;;;;;;13.47;27.63;96249.59;5079452;28;20036;-77
2021/04/09 09:55:29;;;;;;;5.33;2.70;;;;;;;13.42;27.11;96258.88;5076223;28;20061;-77
2021/04/09 09:57:55;;;;;;;5.53;2.33;;;;;;;13.33;27.44;96251.19;5071952;28;20086;-77
2021/04/09 10:00:28;;;;;;;6.63;2.13;;;;;;;13.75;25.85;96250.69;5050020;28;20059;-77
2021/04/09 10:03:12;;;;;;;;;;;;;;;13.99;28.00;96243.53;5071983;28;20035;-77
2021/04/09 10:05:40;;;;;;;4.70;1.87;;;;;;;14.01;26.77;96239.69;5059048;28;20423;-78
2021/04/09 10:08:07;;;;;;;5.07;1.93;;;;;;;13.74;26.83;96235.81;5076617;28;20032;-78
2021/04/09 10:10:45;;;;;;;8.00;2.50;;;;;;;13.92;27.13;96238.16;5069039;28;20056;-78
2021/04/09 10:13:24;;;;;;;5.87;2.40;;;;;;;13.70;27.69;96231.09;5070426;28;20036;-78
2021/04/09 10:16:04;;;;;;;4.23;2.07;;;;;;;13.43;27.41;96223.53;5069769;28;20480;-78
2021/04/09 10:18:30;;;;;;;4.47;1.67;;;;;;;13.30;26.75;96222.47;5070129;28;20385;-77
2021/04/09 10:20:55;;;;;;;4.67;2.20;;;;;;;13.20;28.05;96225.31;5060431;28;20020;-78
2021/04/09 10:23:24;;;;;;;6.73;2.40;;;;;;;13.58;27.67;96225.38;5054533;28;20440;-81
2021/04/09 10:25:53;;;;;;;4.27;1.90;;;;;;;13.36;26.88;96227.06;5060785;28;20380;-78
2021/04/09 10:28:19;;;;;;;7.10;2.10;;;;;;;13.57;26.27;96221.13;5070671;28;20029;-78
2021/04/09 10:30:45;;;;;;;3.80;1.70;;;;;;;13.26;27.14;96216.72;5062993;28;20051;-78
2021/04/09 10:33:11;;;;;;;4.53;2.00;;;;;;;13.30;26.83;96212.72;5089807;28;20493;-78
2021/04/09 10:35:37;;;;;;;4.00;2.07;;;;;;;13.64;27.58;96219.41;5079293;28;20077;-78
2021/04/09 10:38:13;;;;;;;6.73;2.37;;;;;;;13.63;26.61;96212.47;5080117;28;20421;-78
2021/04/09 10:40:57;;;;;;;6.60;2.00;;;;;;;13.55;26.78;96213.38;5068488;28;20056;-77
2021/04/09 10:43:41;;;;;;;6.47;2.42;;;;;;;13.30;25.74;96207.44;5054340;28;20079;-77
2021/04/09 10:46:11;;;;;;;6.07;2.07;;;;;;;13.69;26.47;96203.84;5060394;28;20031;-77
2021/04/09 10:48:37;;;;;;;4.90;2.37;;;;;;;13.95;25.32;96207.88;5039362;28;20575;-77
2021/04/09 10:51:03;;;;;;;5.97;3.00;;;;;;;14.21;25.00;96210.91;5076078;28;20024;-78
2021/04/09 10:53:29;;;;;;;5.30;2.03;;;;;;;14.71;26.48;96190.81;5075241;28;20027;-77
2021/04/09 10:56:04;;;;;;;3.97;1.80;;;;;;;14.43;24.82;96201.22;5061781;28;20028;-77
2021/04/09 10:58:30;;;;;;;8.37;2.47;;;;;;;14.67;25.12;96194.84;5066420;28;20033;-79
2021/04/09 11:00:56;;;;;;;6.37;2.40;;;;;;;14.27;24.05;96191.66;5066612;28;20039;-78
2021/04/09 11:03:22;;;;;;;5.83;2.43;;;;;;;14.80;25.03;96188.88;5067747;28;20028;-79
2021/04/09 11:05:48;;;;;;;4.00;2.13;;;;;;;14.78;25.19;96175.00;5060487;28;20028;-79
2021/04/09 11:08:35;;;;;;;6.67;3.40;;;;;;;15.36;23.35;96173.16;5075099;28;20072;-77
2021/04/09 11:11:04;;;;;;;5.77;1.80;;;;;;;15.71;23.24;96175.91;5047880;28;20040;-79
2021/04/09 11:13:32;;;;;;;6.07;2.20;;;;;;;15.04;24.53;96169.97;5070795;28;20036;-78
2021/04/09 11:15:57;;;;;;;5.70;1.90;;;;;;;15.42;23.88;96163.59;5057325;28;20524;-78
2021/04/09 11:18:23;;;;;;;3.87;2.00;;;;;;;15.35;23.59;96157.44;5069939;28;20033;-78
2021/04/09 11:20:49;;;;;;;5.67;3.00;;;;;;;15.12;24.05;96160.28;5061885;28;20079;-77
2021/04/09 11:23:16;;;;;;;5.43;2.27;;;;;;;14.49;24.66;96165.28;5075716;28;20111;-77
2021/04/09 11:25:44;;;;;;;5.27;2.13;;;;;;;14.96;24.18;96148.13;5056290;28;20115;-76
2021/04/09 11:28:24;;;;;;;5.93;2.33;;;;;;;15.36;25.65;96151.97;5071935;28;20485;-78
2021/04/09 11:31:02;;;;;;;8.07;2.30;;;;;;;15.66;24.63;96149.97;5049683;28;20037;-77
2021/04/09 11:33:37;;;;;;;6.10;2.33;;;;;;;15.60;24.90;96140.13;5063009;28;20052;-77
2021/04/09 11:36:22;;;;;;;5.60;2.37;;;;;;;15.04;24.96;96140.84;5090788;28;20035;-78
2021/04/09 11:38:49;;;;;;;4.20;2.07;;;;;;;15.73;24.62;96142.88;5066780;28;20387;-79
2021/04/09 11:41:26;;;;;;;7.97;2.20;;;;;;;15.76;25.94;96141.66;5060988;28;20117;-79